Time;durP1;ratioP1;P1;durP2;ratioP2;P2;SDS_P1;SDS_P2;PMS_P1;PMS_P2;Temp;Humidity;BMP_temperature;BMP_pressure;BME280_temperature;BME280_humidity;BME280_pressure;Samples;Min_cycle;Max_cycle;Signal;HPM_P1;HPM_P2
2023/06/06 00:01:53;;;;;;;18.00;6.90;;;;;;;;;;5020862;28;20053;-72
2023/06/06 00:04:18;;;;;;;18.65;7.88;;;;;;;;;;5023978;28;20045;-72
2023/06/06 00:06:44;;;;;;;18.75;6.60;;;;;;;;;;5025037;28;20163;-72
2023/06/06 00:09:10;;;;;;;19.30;7.30;;;;;;;;;;5023756;28;20037;-72
2023/06/06 00:11:35;;;;;;;20.95;7.45;;;;;;;;;;5046322;28;20026;-72
2023/06/06 00:14:01;;;;;;;19.75;7.22;;;;;;;;;;5024067;28;20155;-72
2023/06/06 00:16:27;;;;;;;17.73;7.65;;;;;;;;;;5025455;28;20025;-72
2023/06/06 00:18:55;;;;;;;14.73;6.55;;;;;;;;;;5024586;28;20415;-72
2023/06/06 00:21:21;;;;;;;19.92;7.75;;;;;;;;;;5024809;28;20533;-72
2023/06/06 00:23:47;;;;;;;20.33;7.97;;;;;;;;;;5022298;28;20160;-72
2023/06/06 00:26:12;;;;;;;20.30;7.50;;;;;;;;;;5024560;28;20116;-72
2023/06/06 00:28:37;;;;;;;19.52;7.25;;;;;;;;;;5024196;28;20048;-72
2023/06/06 00:31:03;;;;;;;17.08;8.30;;;;;;;;;;5016604;28;20021;-72
2023/06/06 00:33:28;;;;;;;19.92;7.25;;;;;;;;;;5022839;28;20045;-72
2023/06/06 00:35:53;;;;;;;20.23;8.07;;;;;;;;;;5021803;28;20097;-72
2023/06/06 00:38:19;;;;;;;19.88;7.68;;;;;;;;;;5022326;28;20103;-72
2023/06/06 00:40:44;;;;;;;22.52;7.32;;;;;;;;;;5023677;28;20491;-72
2023/06/06 00:43:10;;;;;;;17.60;8.25;;;;;;;;;;5025105;28;20029;-72
2023/06/06 00:45:35;;;;;;;22.02;7.38;;;;;;;;;;5022367;28;20037;-72
2023/06/06 00:48:02;;;;;;;22.45;8.15;;;;;;;;;;5024380;28;20037;-72
2023/06/06 00:50:28;;;;;;;25.52;8.77;;;;;;;;;;5022879;28;20026;-72
2023/06/06 00:52:53;;;;;;;23.30;8.15;;;;;;;;;;5024060;28;20025;-71
2023/06/06 00:55:20;;;;;;;20.85;8.32;;;;;;;;;;5023503;28;20036;-72
2023/06/06 00:57:47;;;;;;;20.25;8.07;;;;;;;;;;5025087;28;20112;-72
2023/06/06 01:00:13;;;;;;;22.70;8.35;;;;;;;;;;5028203;28;20041;-72
2023/06/06 01:02:43;;;;;;;25.88;8.35;;;;;;;;;;5036441;28;20072;-72
2023/06/06 01:05:09;;;;;;;22.83;8.23;;;;;;;;;;5038352;28;20159;-71
2023/06/06 01:07:35;;;;;;;20.05;7.97;;;;;;;;;;5016384;28;20056;-72
2023/06/06 01:10:09;;;;;;;24.45;8.30;;;;;;;;;;5023365;28;20060;-72
2023/06/06 01:12:34;;;;;;;;;;;;;;;;;;5023314;28;20147;-72
2023/06/06 01:15:24;;;;;;;19.83;7.17;;;;;;;;;;5023976;28;20413;-71
2023/06/06 01:17:50;;;;;;;18.63;7.72;;;;;;;;;;5023651;28;20268;-72
2023/06/06 01:20:16;;;;;;;22.38;8.30;;;;;;;;;;5024422;28;20037;-71
2023/06/06 01:22:46;;;;;;;19.90;7.82;;;;;;;;;;5021981;28;20383;-71
2023/06/06 01:25:19;;;;;;;25.20;7.88;;;;;;;;;;5023486;28;20104;-72
2023/06/06 01:27:46;;;;;;;29.73;8.77;;;;;;;;;;5024184;28;20033;-72
2023/06/06 01:30:12;;;;;;;24.95;7.60;;;;;;;;;;5021843;28;20103;-72
2023/06/06 01:33:23;;;;;;;22.73;8.85;;;;;;;;;;5023230;28;20030;-72
2023/06/06 01:36:05;;;;;;;23.20;8.15;;;;;;;;;;5012738;28;20041;-72
2023/06/06 01:38:36;;;;;;;22.42;8.30;;;;;;;;;;5022243;28;20043;-71
2023/06/06 01:41:04;;;;;;;21.67;8.13;;;;;;;;;;5023872;28;20434;-71
2023/06/06 01:43:32;;;;;;;18.55;7.85;;;;;;;;;;5022544;28;20819;-71
2023/06/06 01:45:58;;;;;;;21.80;8.73;;;;;;;;;;5001893;28;20053;-72
2023/06/06 01:48:25;;;;;;;22.50;9.23;;;;;;;;;;5004065;28;20128;-72
2023/06/06 01:50:50;;;;;;;22.13;7.50;;;;;;;;;;5003307;28;20702;-71
2023/06/06 01:53:16;;;;;;;20.20;7.97;;;;;;;;;;5003981;28;20041;-72
2023/06/06 01:55:41;;;;;;;25.35;8.27;;;;;;;;;;5003650;28;20061;-71
2023/06/06 01:58:07;;;;;;;21.40;8.15;;;;;;;;;;5003680;28;20025;-71
2023/06/06 02:00:33;;;;;;;26.73;8.27;;;;;;;;;;5003522;28;20046;-71
2023/06/06 02:02:58;;;;;;;27.45;8.07;;;;;;;;;;5001655;28;20502;-71
2023/06/06 02:05:23;;;;;;;24.60;8.25;;;;;;;;;;5002403;28;20033;-71
2023/06/06 02:07:49;;;;;;;23.20;8.05;;;;;;;;;;5005050;28;20033;-71
2023/06/06 02:10:15;;;;;;;23.77;8.23;;;;;;;;;;5003855;28;20117;-71
2023/06/06 02:12:41;;;;;;;22.52;8.88;;;;;;;;;;4997161;28;20073;-71
2023/06/06 02:15:07;;;;;;;23.98;8.27;;;;;;;;;;4989263;28;20134;-71
2023/06/06 02:17:33;;;;;;;25.48;8.10;;;;;;;;;;5001982;28;20519;-71
2023/06/06 02:19:58;;;;;;;20.83;8.35;;;;;;;;;;5005273;28;20042;-71
2023/06/06 02:22:24;;;;;;;20.00;7.55;;;;;;;;;;5006116;28;20440;-71
2023/06/06 02:24:52;;;;;;;23.83;7.88;;;;;;;;;;5009711;28;20037;-72
2023/06/06 02:27:19;;;;;;;17.42;7.25;;;;;;;;;;5017566;28;20042;-72
2023/06/06 02:29:45;;;;;;;21.38;8.18;;;;;;;;;;5020073;28;20044;-71
2023/06/06 02:32:11;;;;;;;21.38;8.25;;;;;;;;;;5005938;28;20042;-71
2023/06/06 02:34:37;;;;;;;24.92;8.73;;;;;;;;;;5006401;28;20026;-71
2023/06/06 02:37:06;;;;;;;29.40;8.25;;;;;;;;;;5004580;28;20677;-72
2023/06/06 02:39:35;;;;;;;22.45;7.85;;;;;;;;;;4995224;28;20038;-71
2023/06/06 02:42:01;;;;;;;19.58;8.27;;;;;;;;;;5006261;28;20041;-71
2023/06/06 02:44:27;;;;;;;20.85;8.30;;;;;;;;;;5006453;28;20030;-72
2023/06/06 02:46:52;;;;;;;21.52;8.52;;;;;;;;;;5006540;28;20040;-72
2023/06/06 02:49:17;;;;;;;20.63;8.45;;;;;;;;;;5006712;28;20133;-72
2023/06/06 02:51:43;;;;;;;22.27;8.20;;;;;;;;;;5006445;28;20069;-71
2023/06/06 02:54:08;;;;;;;23.38;7.85;;;;;;;;;;5006166;28;20104;-72
2023/06/06 02:56:33;;;;;;;22.63;8.25;;;;;;;;;;5006143;28;20025;-71
2023/06/06 02:58:59;;;;;;;18.20;7.97;;;;;;;;;;5004622;28;20509;-71
2023/06/06 03:01:25;;;;;;;24.02;8.77;;;;;;;;;;5020199;28;20411;-72
2023/06/06 03:03:51;;;;;;;27.13;7.97;;;;;;;;;;5005912;28;20053;-71
2023/06/06 03:06:18;;;;;;;22.33;8.05;;;;;;;;;;5004739;28;20054;-72
2023/06/06 03:08:44;;;;;;;20.65;7.13;;;;;;;;;;4995543;28;20129;-71
2023/06/06 03:11:10;;;;;;;23.33;7.82;;;;;;;;;;5004919;28;20502;-71
2023/06/06 03:13:35;;;;;;;20.00;7.68;;;;;;;;;;5004523;28;20022;-71
2023/06/06 03:16:01;;;;;;;24.27;8.50;;;;;;;;;;5003708;28;20558;-71
2023/06/06 03:18:27;;;;;;;19.58;7.47;;;;;;;;;;5006788;28;20065;-71
2023/06/06 03:20:53;;;;;;;17.23;7.55;;;;;;;;;;4990242;28;20617;-71
2023/06/06 03:23:20;;;;;;;20.73;7.70;;;;;;;;;;5003413;28;20038;-71
2023/06/06 03:25:49;;;;;;;18.38;7.57;;;;;;;;;;5005684;28;20029;-71
2023/06/06 03:28:17;;;;;;;20.05;8.20;;;;;;;;;;5006588;28;20161;-71
2023/06/06 03:30:43;;;;;;;20.50;9.13;;;;;;;;;;5002981;28;20041;-71
2023/06/06 03:33:08;;;;;;;25.38;8.32;;;;;;;;;;5006228;28;20045;-71
2023/06/06 03:35:35;;;;;;;20.85;7.85;;;;;;;;;;5004009;28;20040;-71
2023/06/06 03:38:01;;;;;;;23.83;8.27;;;;;;;;;;5004786;28;20050;-71
2023/06/06 03:40:27;;;;;;;19.10;7.28;;;;;;;;;;5006279;28;20040;-71
2023/06/06 03:42:52;;;;;;;23.73;7.82;;;;;;;;;;5004223;28;20042;-71
2023/06/06 03:45:18;;;;;;;20.30;7.75;;;;;;;;;;5005767;28;20576;-71
2023/06/06 03:47:44;;;;;;;23.02;8.80;;;;;;;;;;5006667;28;20036;-71
2023/06/06 03:50:11;;;;;;;19.95;7.60;;;;;;;;;;5009266;28;20042;-72
2023/06/06 03:52:36;;;;;;;20.50;7.57;;;;;;;;;;5018490;28;20054;-71
2023/06/06 03:55:02;;;;;;;24.52;7.88;;;;;;;;;;5021135;28;20025;-71
2023/06/06 03:57:28;;;;;;;21.17;7.65;;;;;;;;;;5009062;28;20117;-72
2023/06/06 03:59:54;;;;;;;22.73;8.23;;;;;;;;;;4995278;28;20049;-71
2023/06/06 04:02:19;;;;;;;23.35;8.35;;;;;;;;;;5005436;28;20121;-72
2023/06/06 04:04:45;;;;;;;23.10;7.78;;;;;;;;;;5003927;28;20216;-72
2023/06/06 04:07:10;;;;;;;26.40;7.45;;;;;;;;;;5005683;28;20053;-72
2023/06/06 04:09:36;;;;;;;24.13;7.88;;;;;;;;;;5003309;28;20763;-72
2023/06/06 04:12:02;;;;;;;22.20;8.30;;;;;;;;;;4994039;28;20046;-72
2023/06/06 04:14:27;;;;;;;19.42;7.95;;;;;;;;;;5004551;28;20133;-72
2023/06/06 04:16:53;;;;;;;22.45;7.18;;;;;;;;;;5002237;28;20156;-72
2023/06/06 04:19:18;;;;;;;20.30;8.00;;;;;;;;;;5004703;28;20028;-72
2023/06/06 04:21:45;;;;;;;24.25;7.78;;;;;;;;;;4993415;28;20037;-72
2023/06/06 04:24:11;;;;;;;24.05;7.88;;;;;;;;;;4992904;28;20136;-72
2023/06/06 04:26:37;;;;;;;19.33;7.68;;;;;;;;;;5003449;28;20094;-72
2023/06/06 04:29:03;;;;;;;19.00;7.07;;;;;;;;;;5004159;28;20095;-72
2023/06/06 04:31:29;;;;;;;19.48;7.50;;;;;;;;;;5002987;28;20032;-72
2023/06/06 04:33:55;;;;;;;23.85;7.95;;;;;;;;;;5002947;28;20065;-72
2023/06/06 04:36:23;;;;;;;19.23;7.18;;;;;;;;;;5002669;28;20111;-72
2023/06/06 04:38:49;;;;;;;20.67;7.68;;;;;;;;;;5002793;28;20026;-72
2023/06/06 04:41:22;;;;;;;24.75;7.50;;;;;;;;;;5003385;28;20030;-72
2023/06/06 04:43:51;;;;;;;20.60;7.40;;;;;;;;;;5003916;28;20022;-72
2023/06/06 04:46:21;;;;;;;20.50;7.32;;;;;;;;;;5005451;28;20050;-72
2023/06/06 04:48:53;;;;;;;17.98;7.05;;;;;;;;;;4994479;28;20046;-72
2023/06/06 04:51:20;;;;;;;20.52;7.82;;;;;;;;;;5002797;28;20423;-72
2023/06/06 04:53:46;;;;;;;24.58;8.13;;;;;;;;;;4997303;28;20034;-72
2023/06/06 04:56:11;;;;;;;19.05;7.32;;;;;;;;;;5003153;28;20030;-72
2023/06/06 04:58:38;;;;;;;24.30;8.23;;;;;;;;;;5004263;28;20116;-72
2023/06/06 05:01:04;;;;;;;17.67;7.32;;;;;;;;;;5001021;28;20018;-72
2023/06/06 05:03:29;;;;;;;23.33;7.07;;;;;;;;;;5004098;28;20050;-72
2023/06/06 05:05:56;;;;;;;20.08;7.57;;;;;;;;;;5003814;28;20034;-72
2023/06/06 05:08:21;;;;;;;17.13;6.82;;;;;;;;;;5003439;28;20057;-72
2023/06/06 05:10:47;;;;;;;17.45;6.45;;;;;;;;;;5003909;28;20029;-73
2023/06/06 05:13:14;;;;;;;18.23;7.20;;;;;;;;;;5005527;28;20406;-72
2023/06/06 05:15:39;;;;;;;13.32;6.45;;;;;;;;;;5010778;28;20033;-72
2023/06/06 05:18:04;;;;;;;19.52;7.32;;;;;;;;;;5016129;28;20038;-72
2023/06/06 05:20:30;;;;;;;17.45;7.50;;;;;;;;;;5012378;28;20096;-72
2023/06/06 05:22:55;;;;;;;16.67;6.38;;;;;;;;;;4999082;28;20061;-72
2023/06/06 05:25:21;;;;;;;18.40;7.25;;;;;;;;;;5004296;28;20014;-72
2023/06/06 05:27:46;;;;;;;18.30;7.32;;;;;;;;;;5003067;28;20069;-72
2023/06/06 05:30:12;;;;;;;17.02;6.38;;;;;;;;;;5002595;28;20030;-72
2023/06/06 05:32:37;;;;;;;18.20;7.30;;;;;;;;;;5003209;28;20042;-72
2023/06/06 05:35:04;;;;;;;19.58;8.25;;;;;;;;;;5002751;28;20095;-72
2023/06/06 05:37:29;;;;;;;15.73;6.43;;;;;;;;;;5003886;28;20105;-72
2023/06/06 05:39:55;;;;;;;20.27;6.72;;;;;;;;;;5001214;28;20030;-72
2023/06/06 05:42:22;;;;;;;22.90;7.47;;;;;;;;;;5002447;28;20030;-72
2023/06/06 05:44:50;;;;;;;17.45;6.95;;;;;;;;;;5002500;28;20699;-72
2023/06/06 05:47:16;;;;;;;18.00;6.95;;;;;;;;;;5002968;28;20046;-73
2023/06/06 05:49:41;;;;;;;20.10;7.18;;;;;;;;;;5004122;28;20025;-72
2023/06/06 05:52:07;;;;;;;18.50;6.53;;;;;;;;;;5009523;28;20328;-72
2023/06/06 05:54:32;;;;;;;15.63;6.65;;;;;;;;;;4993290;28;20045;-72
2023/06/06 05:56:58;;;;;;;16.95;6.53;;;;;;;;;;5000119;28;20046;-72
2023/06/06 05:59:23;;;;;;;19.38;7.05;;;;;;;;;;5009368;28;20037;-72
2023/06/06 06:01:49;;;;;;;16.50;6.63;;;;;;;;;;5017371;28;20053;-72
2023/06/06 06:04:18;;;;;;;17.00;7.50;;;;;;;;;;5007668;28;20046;-72
2023/06/06 06:06:49;;;;;;;18.42;6.68;;;;;;;;;;5007223;28;20030;-72
2023/06/06 06:09:16;;;;;;;25.02;8.02;;;;;;;;;;5007157;28;20411;-72
2023/06/06 06:11:42;;;;;;;16.15;6.68;;;;;;;;;;5006466;28;20043;-72
2023/06/06 06:14:08;;;;;;;15.75;6.90;;;;;;;;;;5007466;28;20038;-72
2023/06/06 06:16:33;;;;;;;18.75;7.20;;;;;;;;;;5005556;28;20057;-72
2023/06/06 06:18:58;;;;;;;16.92;6.50;;;;;;;;;;5005637;28;20030;-72
2023/06/06 06:21:25;;;;;;;16.83;6.45;;;;;;;;;;4998493;28;20117;-72
2023/06/06 06:23:51;;;;;;;18.10;6.97;;;;;;;;;;5006067;28;20076;-72
2023/06/06 06:26:17;;;;;;;20.08;6.63;;;;;;;;;;5007385;28;20407;-72
2023/06/06 06:28:42;;;;;;;13.68;6.13;;;;;;;;;;5006468;28;20475;-72
2023/06/06 06:31:08;;;;;;;17.88;7.18;;;;;;;;;;5005313;28;20022;-72
2023/06/06 06:33:34;;;;;;;17.15;7.18;;;;;;;;;;5005187;28;20578;-72
2023/06/06 06:36:00;;;;;;;19.63;7.30;;;;;;;;;;5006549;28;20556;-72
2023/06/06 06:38:25;;;;;;;15.27;7.13;;;;;;;;;;5006875;28;20026;-72
2023/06/06 06:40:51;;;;;;;15.55;6.20;;;;;;;;;;5004667;28;20430;-71
2023/06/06 06:43:16;;;;;;;19.25;7.18;;;;;;;;;;5012685;28;20033;-72
2023/06/06 06:45:41;;;;;;;21.35;7.32;;;;;;;;;;5009819;28;20084;-72
2023/06/06 06:48:07;;;;;;;18.88;7.10;;;;;;;;;;5005264;28;20034;-72
2023/06/06 06:50:32;;;;;;;22.13;6.22;;;;;;;;;;5003378;28;20235;-72
2023/06/06 06:52:58;;;;;;;21.02;6.35;;;;;;;;;;4997513;28;20036;-72
2023/06/06 06:55:24;;;;;;;15.32;6.72;;;;;;;;;;4997160;28;20116;-72
2023/06/06 06:57:50;;;;;;;14.95;6.70;;;;;;;;;;5006303;28;20041;-72
2023/06/06 07:00:18;;;;;;;17.98;7.30;;;;;;;;;;5004535;28;20026;-72
2023/06/06 07:02:44;;;;;;;18.25;7.20;;;;;;;;;;4985577;28;20049;-72
2023/06/06 07:05:15;;;;;;;22.58;7.60;;;;;;;;;;5004055;28;20483;-72
2023/06/06 07:07:47;;;;;;;14.48;6.60;;;;;;;;;;5002469;28;20470;-72
2023/06/06 07:10:14;;;;;;;18.83;6.90;;;;;;;;;;4988311;28;20432;-72
2023/06/06 07:12:40;;;;;;;18.38;7.47;;;;;;;;;;4995836;28;20060;-72
2023/06/06 07:15:08;;;;;;;14.50;6.72;;;;;;;;;;4995921;28;20050;-72
2023/06/06 07:17:33;;;;;;;15.85;6.75;;;;;;;;;;4999301;28;20095;-72
2023/06/06 07:19:58;;;;;;;19.67;7.25;;;;;;;;;;4997845;28;20041;-72
2023/06/06 07:22:24;;;;;;;14.07;6.32;;;;;;;;;;4997259;28;20573;-72
2023/06/06 07:24:49;;;;;;;14.70;7.00;;;;;;;;;;5000988;28;20026;-71
2023/06/06 07:27:18;;;;;;;17.30;6.95;;;;;;;;;;5005197;28;20057;-72
2023/06/06 07:29:43;;;;;;;15.13;6.38;;;;;;;;;;5000770;28;20419;-72
2023/06/06 07:32:08;;;;;;;14.15;6.50;;;;;;;;;;4995238;28;20038;-72
2023/06/06 07:34:34;;;;;;;19.45;7.30;;;;;;;;;;4994721;28;20018;-72
2023/06/06 07:37:00;;;;;;;13.82;6.57;;;;;;;;;;5002822;28;20073;-71
2023/06/06 07:39:26;;;;;;;13.65;7.30;;;;;;;;;;4995122;28;20042;-72
2023/06/06 07:41:51;;;;;;;15.35;6.97;;;;;;;;;;4995252;28;20038;-72
2023/06/06 07:44:18;;;;;;;17.92;6.70;;;;;;;;;;4998668;28;20100;-72
2023/06/06 07:46:44;;;;;;;17.08;7.68;;;;;;;;;;5004762;28;20076;-72
2023/06/06 07:49:09;;;;;;;17.45;7.28;;;;;;;;;;5005993;28;20030;-72
2023/06/06 07:51:35;;;;;;;19.40;7.32;;;;;;;;;;5004403;28;20084;-72
2023/06/06 07:54:00;;;;;;;18.52;7.72;;;;;;;;;;5005478;28;20040;-72
2023/06/06 07:56:30;;;;;;;21.35;7.57;;;;;;;;;;5005327;28;20120;-72
2023/06/06 07:58:55;;;;;;;16.85;7.90;;;;;;;;;;4987715;28;20049;-72
2023/06/06 08:01:21;;;;;;;17.30;7.45;;;;;;;;;;4997433;28;20030;-72
2023/06/06 08:03:50;;;;;;;17.05;6.95;;;;;;;;;;4998662;28;20120;-72
2023/06/06 08:06:19;;;;;;;16.02;6.63;;;;;;;;;;5017155;28;20034;-72
2023/06/06 08:08:46;;;;;;;14.98;6.90;;;;;;;;;;5015327;28;20057;-72
2023/06/06 08:11:13;;;;;;;18.65;8.13;;;;;;;;;;5003263;28;20030;-72
2023/06/06 08:13:38;;;;;;;15.75;7.20;;;;;;;;;;5004185;28;20495;-72
2023/06/06 08:16:04;;;;;;;16.33;8.05;;;;;;;;;;5004896;28;20049;-72
2023/06/06 08:18:29;;;;;;;17.15;7.28;;;;;;;;;;5003439;28;20033;-72
2023/06/06 08:20:55;;;;;;;16.42;6.75;;;;;;;;;;5004263;28;20531;-72
2023/06/06 08:23:20;;;;;;;15.30;7.00;;;;;;;;;;5003783;28;20069;-72
2023/06/06 08:25:45;;;;;;;17.05;7.95;;;;;;;;;;5004053;28;20030;-72
2023/06/06 08:28:11;;;;;;;16.60;7.03;;;;;;;;;;5003963;28;20394;-72
2023/06/06 08:30:36;;;;;;;18.10;7.63;;;;;;;;;;5001305;28;20041;-72
2023/06/06 08:33:01;;;;;;;16.15;7.72;;;;;;;;;;5002897;28;20550;-72
2023/06/06 08:35:27;;;;;;;16.83;7.35;;;;;;;;;;4999306;28;20046;-72
2023/06/06 08:37:52;;;;;;;17.52;7.43;;;;;;;;;;4996469;28;20045;-72
2023/06/06 08:40:17;;;;;;;16.10;7.93;;;;;;;;;;5002828;28;20034;-72
2023/06/06 08:42:48;;;;;;;17.38;8.15;;;;;;;;;;5003727;28;20085;-72
2023/06/06 08:45:13;;;;;;;18.27;8.05;;;;;;;;;;4990070;28;20030;-72
2023/06/06 08:47:41;;;;;;;16.50;7.93;;;;;;;;;;4996436;28;20045;-72
2023/06/06 08:50:07;;;;;;;19.38;7.70;;;;;;;;;;4996675;28;20330;-72
2023/06/06 08:52:37;;;;;;;17.70;7.65;;;;;;;;;;5003327;28;20033;-72
2023/06/06 08:55:04;;;;;;;20.08;9.32;;;;;;;;;;5003949;28;20025;-72
2023/06/06 08:57:29;;;;;;;14.13;7.47;;;;;;;;;;5004358;28;20041;-72
2023/06/06 08:59:54;;;;;;;17.10;8.75;;;;;;;;;;5003626;28;20033;-72
2023/06/06 09:02:21;;;;;;;16.40;7.78;;;;;;;;;;5003742;28;20100;-72
2023/06/06 09:04:48;;;;;;;18.02;8.40;;;;;;;;;;5003535;28;20022;-72
2023/06/06 09:07:15;;;;;;;18.23;8.07;;;;;;;;;;5004368;28;20526;-73
2023/06/06 09:09:43;;;;;;;15.68;8.63;;;;;;;;;;5002192;28;20069;-72
2023/06/06 09:12:09;;;;;;;17.05;8.20;;;;;;;;;;4999725;28;20048;-72
2023/06/06 09:14:35;;;;;;;16.85;8.35;;;;;;;;;;4999275;28;20593;-72
2023/06/06 09:17:02;;;;;;;15.38;7.38;;;;;;;;;;5023325;28;20029;-72
2023/06/06 09:19:30;;;;;;;17.20;7.65;;;;;;;;;;5023385;28;20079;-72
2023/06/06 09:21:59;;;;;;;18.00;8.30;;;;;;;;;;5024888;28;20025;-72
2023/06/06 09:24:26;;;;;;;18.45;7.80;;;;;;;;;;5028347;28;20025;-72
2023/06/06 09:26:52;;;;;;;20.35;7.97;;;;;;;;;;5019761;28;20036;-72
2023/06/06 09:29:17;;;;;;;17.15;8.73;;;;;;;;;;5035179;28;20499;-72
2023/06/06 09:31:42;;;;;;;19.35;8.20;;;;;;;;;;5043028;28;20049;-72
2023/06/06 09:34:09;;;;;;;19.50;8.93;;;;;;;;;;5034683;28;20052;-72
2023/06/06 09:36:38;;;;;;;17.33;8.60;;;;;;;;;;5029559;28;20084;-72
2023/06/06 09:39:08;;;;;;;19.05;8.60;;;;;;;;;;5028119;28;20053;-72
2023/06/06 09:41:41;;;;;;;14.20;7.93;;;;;;;;;;5028411;28;20116;-72
2023/06/06 09:44:41;;;;;;;18.23;8.45;;;;;;;;;;5027350;28;20034;-71
2023/06/06 09:47:06;;;;;;;17.80;8.00;;;;;;;;;;5017956;28;20034;-72
2023/06/06 09:49:35;;;;;;;18.23;8.70;;;;;;;;;;5027280;28;20032;-72
2023/06/06 09:52:02;;;;;;;16.55;7.72;;;;;;;;;;5020012;28;20596;-72
2023/06/06 09:54:28;;;;;;;16.95;8.27;;;;;;;;;;5021964;28;20073;-73
2023/06/06 09:56:55;;;;;;;18.60;8.18;;;;;;;;;;5016632;28;20068;-72
2023/06/06 09:59:23;;;;;;;14.60;8.05;;;;;;;;;;5014109;28;20037;-73
2023/06/06 10:01:53;;;;;;;17.95;7.93;;;;;;;;;;5014888;28;20782;-73
2023/06/06 10:04:19;;;;;;;16.27;8.02;;;;;;;;;;5023534;28;20041;-73
2023/06/06 10:06:46;;;;;;;15.43;7.85;;;;;;;;;;5027418;28;20469;-73
2023/06/06 10:09:12;;;;;;;16.30;7.15;;;;;;;;;;5025353;28;20030;-73
2023/06/06 10:11:38;;;;;;;18.13;8.10;;;;;;;;;;5027549;28;20074;-72
2023/06/06 10:14:08;;;;;;;18.50;8.00;;;;;;;;;;5026992;28;20053;-73
2023/06/06 10:16:35;;;;;;;16.17;7.97;;;;;;;;;;5026672;28;20033;-73
2023/06/06 10:19:01;;;;;;;15.70;8.88;;;;;;;;;;5025631;28;20716;-73
2023/06/06 10:21:28;;;;;;;20.38;8.65;;;;;;;;;;5027115;28;20261;-73
2023/06/06 10:23:54;;;;;;;16.73;8.25;;;;;;;;;;5027282;28;20121;-73
2023/06/06 10:26:29;;;;;;;18.65;8.27;;;;;;;;;;5025307;28;20112;-73
2023/06/06 10:29:20;;;;;;;14.43;8.05;;;;;;;;;;5021992;28;20030;-73
2023/06/06 10:31:54;;;;;;;14.95;8.10;;;;;;;;;;5025255;28;20021;-72
2023/06/06 10:34:29;;;;;;;16.98;8.10;;;;;;;;;;5026586;28;20049;-73
2023/06/06 10:36:57;;;;;;;14.75;7.38;;;;;;;;;;5027032;28;20519;-73
2023/06/06 10:39:24;;;;;;;16.05;7.45;;;;;;;;;;5026669;28;20121;-72
2023/06/06 10:41:51;;;;;;;14.57;8.27;;;;;;;;;;5026775;28;20041;-72
2023/06/06 10:44:32;;;;;;;16.65;7.20;;;;;;;;;;5025501;28;20048;-73
2023/06/06 10:47:32;;;;;;;20.08;8.30;;;;;;;;;;5011744;28;20046;-73
2023/06/06 10:50:13;;;;;;;15.05;7.30;;;;;;;;;;5028025;28;20537;-73
2023/06/06 10:52:51;;;;;;;16.73;7.85;;;;;;;;;;5033542;28;20052;-72
2023/06/06 10:55:20;;;;;;;13.00;7.25;;;;;;;;;;5040205;28;20025;-73
2023/06/06 10:58:16;;;;;;;18.40;8.25;;;;;;;;;;5031960;28;20037;-73
2023/06/06 11:00:43;;;;;;;15.65;8.00;;;;;;;;;;5025943;28;21023;-73
2023/06/06 11:03:13;;;;;;;13.48;7.38;;;;;;;;;;5025916;28;20084;-73
2023/06/06 11:06:00;;;;;;;15.95;7.93;;;;;;;;;;5026252;28;20086;-73
2023/06/06 11:08:56;;;;;;;14.68;7.07;;;;;;;;;;5013097;28;20042;-73
2023/06/06 11:11:30;;;;;;;16.23;8.13;;;;;;;;;;5022855;28;20572;-73
2023/06/06 11:14:00;;;;;;;22.95;8.25;;;;;;;;;;5026194;28;20083;-72
2023/06/06 11:16:49;;;;;;;17.15;8.18;;;;;;;;;;5027174;28;20053;-73
2023/06/06 11:19:18;;;;;;;19.98;8.65;;;;;;;;;;5026279;28;20098;-73
2023/06/06 11:21:45;;;;;;;13.65;8.18;;;;;;;;;;5025361;28;20092;-73
2023/06/06 11:24:12;;;;;;;15.43;8.18;;;;;;;;;;5013135;28;20037;-73
2023/06/06 11:26:40;;;;;;;16.08;7.68;;;;;;;;;;5020559;28;20545;-72
2023/06/06 11:29:08;;;;;;;13.95;7.18;;;;;;;;;;5012907;28;20515;-73
2023/06/06 11:31:37;;;;;;;13.73;7.53;;;;;;;;;;5018526;28;20087;-73
2023/06/06 11:34:07;;;;;;;12.98;7.32;;;;;;;;;;5026581;28;20061;-73
2023/06/06 11:36:38;;;;;;;15.57;6.93;;;;;;;;;;5025863;28;20095;-73
2023/06/06 11:39:06;;;;;;;19.70;6.80;;;;;;;;;;5025409;28;20095;-73
2023/06/06 11:41:39;;;;;;;12.80;6.20;;;;;;;;;;5023891;28;20044;-73
2023/06/06 11:44:05;;;;;;;13.90;7.25;;;;;;;;;;5016024;28;20447;-73
2023/06/06 11:46:52;;;;;;;14.95;7.22;;;;;;;;;;5022509;28;20503;-73
2023/06/06 11:49:18;;;;;;;16.77;6.95;;;;;;;;;;5025883;28;20073;-73
2023/06/06 11:51:56;;;;;;;13.38;7.05;;;;;;;;;;5023985;28;20041;-73
2023/06/06 11:54:22;;;;;;;13.40;7.20;;;;;;;;;;5025504;28;20068;-73
2023/06/06 11:56:51;;;;;;;24.08;7.22;;;;;;;;;;5025415;28;20033;-73
2023/06/06 11:59:16;;;;;;;13.90;6.90;;;;;;;;;;5025393;28;20043;-73
2023/06/06 12:01:49;;;;;;;13.38;6.88;;;;;;;;;;5021697;28;20418;-73
2023/06/06 12:04:15;;;;;;;11.20;6.82;;;;;;;;;;5026484;28;20061;-73
2023/06/06 12:06:48;;;;;;;9.57;6.13;;;;;;;;;;5025757;28;20116;-73
2023/06/06 12:09:14;;;;;;;14.90;6.55;;;;;;;;;;5023763;28;20395;-73
2023/06/06 12:12:00;;;;;;;12.02;6.50;;;;;;;;;;5040782;28;20041;-73
2023/06/06 12:14:27;;;;;;;15.38;6.60;;;;;;;;;;5024041;28;20174;-73
2023/06/06 12:17:00;;;;;;;10.35;6.05;;;;;;;;;;5036643;28;20033;-73
2023/06/06 12:19:25;;;;;;;;;;;;;;;;;;5041734;28;20079;-73
2023/06/06 12:21:51;;;;;;;14.35;6.00;;;;;;;;;;5036315;28;19921;-73
2023/06/06 12:24:25;;;;;;;10.98;6.43;;;;;;;;;;5026062;28;20033;-73
2023/06/06 12:27:02;;;;;;;10.98;6.60;;;;;;;;;;5014040;28;20037;-73
2023/06/06 12:29:35;;;;;;;9.55;6.13;;;;;;;;;;5008323;28;20033;-72
2023/06/06 12:32:25;;;;;;;13.25;6.20;;;;;;;;;;5016091;28;20045;-73
2023/06/06 12:35:05;;;;;;;10.57;6.10;;;;;;;;;;5019073;28;20011;-73
2023/06/06 12:37:41;;;;;;;21.23;5.93;;;;;;;;;;5015905;28;20499;-73
2023/06/06 12:40:18;;;;;;;10.35;5.63;;;;;;;;;;5023928;28;20041;-73
2023/06/06 12:42:55;;;;;;;12.00;5.95;;;;;;;;;;5024355;28;20030;-73
2023/06/06 12:45:21;;;;;;;9.55;5.45;;;;;;;;;;5011084;28;20072;-73
2023/06/06 12:47:48;;;;;;;11.15;5.60;;;;;;;;;;5024005;28;20064;-73
2023/06/06 12:50:14;;;;;;;12.65;6.03;;;;;;;;;;5017841;28;20030;-72
2023/06/06 12:52:40;;;;;;;9.15;5.50;;;;;;;;;;5014419;28;20029;-71
2023/06/06 12:55:06;;;;;;;11.73;5.88;;;;;;;;;;5013726;28;20029;-72
2023/06/06 12:57:31;;;;;;;9.35;5.20;;;;;;;;;;5020532;28;20063;-72
2023/06/06 12:59:57;;;;;;;9.20;5.63;;;;;;;;;;5022742;28;20128;-72
2023/06/06 13:02:23;;;;;;;9.50;5.50;;;;;;;;;;5022514;28;20049;-72
2023/06/06 13:04:48;;;;;;;8.10;4.97;;;;;;;;;;5022302;28;20013;-72
2023/06/06 13:07:14;;;;;;;9.75;4.97;;;;;;;;;;5023426;28;20109;-72
2023/06/06 13:09:40;;;;;;;10.95;5.45;;;;;;;;;;5023615;28;20033;-71
2023/06/06 13:12:07;;;;;;;17.63;5.95;;;;;;;;;;5022188;28;20029;-72
2023/06/06 13:14:34;;;;;;;12.38;5.38;;;;;;;;;;5021888;28;20537;-72
2023/06/06 13:16:59;;;;;;;8.30;4.68;;;;;;;;;;5018619;28;20065;-72
2023/06/06 13:19:25;;;;;;;8.82;5.10;;;;;;;;;;5024403;28;20102;-73
2023/06/06 13:21:50;;;;;;;7.45;5.43;;;;;;;;;;5027866;28;20388;-72
2023/06/06 13:24:17;;;;;;;9.55;5.32;;;;;;;;;;5021370;28;20099;-72
2023/06/06 13:26:42;;;;;;;7.97;4.82;;;;;;;;;;5023166;28;20037;-72
2023/06/06 13:29:11;;;;;;;7.72;4.60;;;;;;;;;;5021917;28;20041;-71
2023/06/06 13:31:42;;;;;;;7.97;5.13;;;;;;;;;;5023230;28;20037;-73
2023/06/06 13:34:08;;;;;;;8.32;4.65;;;;;;;;;;5024293;28;20079;-72
2023/06/06 13:36:34;;;;;;;7.25;4.53;;;;;;;;;;5024326;28;20037;-73
2023/06/06 13:39:00;;;;;;;10.25;5.00;;;;;;;;;;5023889;28;20515;-73
2023/06/06 13:41:26;;;;;;;8.40;4.22;;;;;;;;;;5029187;28;20051;-73
2023/06/06 13:43:51;;;;;;;6.55;4.25;;;;;;;;;;5036041;28;20053;-73
2023/06/06 13:46:17;;;;;;;7.25;4.50;;;;;;;;;;5029669;28;20125;-73
2023/06/06 13:48:42;;;;;;;6.90;4.63;;;;;;;;;;5020639;28;20510;-73
2023/06/06 13:51:07;;;;;;;8.95;4.55;;;;;;;;;;5020993;28;20127;-73
2023/06/06 13:53:33;;;;;;;9.50;4.32;;;;;;;;;;5021224;28;20030;-73
2023/06/06 13:55:59;;;;;;;8.40;4.07;;;;;;;;;;5022118;28;20038;-73
2023/06/06 13:58:24;;;;;;;9.27;4.55;;;;;;;;;;5021116;28;20113;-73
2023/06/06 14:00:50;;;;;;;7.18;5.05;;;;;;;;;;5021798;28;20053;-73
2023/06/06 14:03:17;;;;;;;7.38;4.13;;;;;;;;;;5022185;28;20045;-73
2023/06/06 14:05:43;;;;;;;13.45;5.10;;;;;;;;;;5022553;28;20113;-73
2023/06/06 14:08:09;;;;;;;5.15;4.28;;;;;;;;;;5021153;28;20103;-73
2023/06/06 14:10:35;;;;;;;7.60;4.15;;;;;;;;;;5023891;28;20090;-73
2023/06/06 14:13:00;;;;;;;8.90;4.75;;;;;;;;;;5025025;28;20813;-73
2023/06/06 14:15:26;;;;;;;7.10;4.95;;;;;;;;;;5026129;28;20473;-73
2023/06/06 14:17:51;;;;;;;10.25;5.55;;;;;;;;;;5026144;28;20558;-73
2023/06/06 14:20:21;;;;;;;6.13;4.40;;;;;;;;;;5026396;28;20036;-73
2023/06/06 14:22:49;;;;;;;6.25;4.35;;;;;;;;;;5018563;28;20128;-73
2023/06/06 14:25:16;;;;;;;7.95;4.35;;;;;;;;;;5015664;28;20033;-73
2023/06/06 14:27:41;;;;;;;6.93;4.47;;;;;;;;;;5018379;28;20029;-73
2023/06/06 14:30:07;;;;;;;5.28;4.55;;;;;;;;;;5025774;28;20049;-73
2023/06/06 14:32:34;;;;;;;5.60;3.97;;;;;;;;;;5026363;28;20041;-73
2023/06/06 14:35:02;;;;;;;4.50;3.95;;;;;;;;;;5024577;28;20029;-73